createdAt,value
2018-03-08T00:02:00.646Z,99.90
2018-03-08T00:04:28.096Z,99.90
2018-03-08T00:06:56.412Z,99.90
2018-03-08T00:09:23.890Z,99.90
2018-03-08T00:11:52.100Z,99.90
2018-03-08T00:14:19.536Z,99.90
2018-03-08T00:16:47.011Z,99.90
2018-03-08T00:19:14.493Z,99.90
2018-03-08T00:21:41.982Z,99.90
2018-03-08T00:24:09.428Z,99.90
2018-03-08T00:26:36.882Z,99.90
2018-03-08T00:29:04.322Z,99.90
2018-03-08T00:31:31.792Z,99.90
2018-03-08T00:33:59.224Z,99.90
2018-03-08T00:36:27.441Z,99.90
2018-03-08T00:38:54.893Z,99.90
2018-03-08T00:41:22.368Z,99.90
2018-03-08T00:43:49.844Z,99.90
2018-03-08T00:46:17.892Z,99.90
2018-03-08T00:48:45.409Z,99.90
2018-03-08T00:51:12.855Z,99.90
2018-03-08T00:53:40.290Z,99.90
2018-03-08T00:56:07.744Z,99.90
2018-03-08T00:58:35.205Z,99.90
2018-03-08T01:01:03.581Z,99.90
2018-03-08T01:03:31.108Z,99.90
2018-03-08T01:05:59.329Z,99.90
2018-03-08T01:08:26.788Z,99.90
2018-03-08T01:10:54.217Z,99.90
2018-03-08T01:13:21.677Z,99.90
2018-03-08T01:15:49.276Z,99.90
2018-03-08T01:18:16.729Z,99.90
2018-03-08T01:20:44.163Z,99.90
2018-03-08T01:23:11.653Z,99.90
2018-03-08T01:25:39.084Z,99.90
2018-03-08T01:28:06.627Z,99.90
2018-03-08T01:30:34.109Z,99.90
2018-03-08T01:33:01.561Z,99.90
2018-03-08T01:35:29.637Z,99.90
2018-03-08T01:37:57.081Z,99.90
2018-03-08T01:40:24.551Z,99.90
2018-03-08T01:42:52.002Z,99.90
2018-03-08T01:45:19.474Z,99.90
2018-03-08T01:47:47.699Z,99.90
2018-03-08T01:50:15.149Z,99.90
2018-03-08T01:52:42.584Z,99.90
2018-03-08T01:55:10.044Z,99.90
2018-03-08T01:57:38.261Z,99.90
2018-03-08T02:00:05.703Z,99.90
2018-03-08T02:02:33.276Z,99.90
2018-03-08T02:05:00.743Z,99.90
2018-03-08T02:07:28.185Z,99.90
2018-03-08T02:09:55.628Z,99.90
2018-03-08T02:12:23.087Z,99.90
2018-03-08T02:14:50.645Z,99.90
2018-03-08T02:17:18.100Z,99.90
2018-03-08T02:19:45.591Z,99.90
2018-03-08T02:22:13.652Z,99.90
2018-03-08T02:24:41.112Z,99.90
2018-03-08T02:27:08.570Z,99.90
2018-03-08T02:29:36.027Z,99.90
2018-03-08T02:32:03.507Z,99.90
2018-03-08T02:34:31.806Z,99.90
2018-03-08T02:36:59.286Z,99.90
2018-03-08T02:39:26.749Z,99.90
2018-03-08T02:41:54.205Z,99.90
2018-03-08T02:44:21.672Z,99.90
2018-03-08T02:46:49.143Z,99.90
2018-03-08T02:49:16.613Z,99.90
2018-03-08T02:51:44.854Z,99.90
2018-03-08T02:54:12.289Z,99.90
2018-03-08T02:56:39.753Z,99.90
2018-03-08T02:59:07.189Z,99.90
2018-03-08T03:01:34.673Z,99.90
2018-03-08T03:04:02.106Z,99.90
2018-03-08T03:06:29.599Z,99.90
2018-03-08T03:08:57.078Z,99.90
2018-03-08T03:11:24.516Z,99.90
2018-03-08T03:13:52.043Z,99.90
2018-03-08T03:16:19.470Z,99.90
2018-03-08T03:18:46.947Z,99.90
2018-03-08T03:21:14.403Z,99.90
2018-03-08T03:23:41.860Z,99.90
2018-03-08T03:26:09.364Z,99.90
2018-03-08T03:28:36.819Z,99.90
2018-03-08T03:31:04.276Z,99.90
2018-03-08T03:33:31.711Z,99.90
2018-03-08T03:35:59.148Z,99.90
2018-03-08T03:38:26.632Z,99.90
2018-03-08T03:40:54.081Z,99.90
2018-03-08T03:43:21.564Z,99.90
2018-03-08T03:45:49.764Z,99.90
2018-03-08T03:48:17.224Z,99.90
2018-03-08T03:50:44.674Z,99.90
2018-03-08T03:53:12.127Z,99.90
2018-03-08T03:55:39.575Z,99.90
2018-03-08T03:58:07.883Z,99.90
2018-03-08T04:00:35.326Z,99.90
2018-03-08T04:03:02.773Z,99.90
2018-03-08T04:05:30.229Z,99.90
2018-03-08T04:07:57.673Z,99.90
2018-03-08T04:10:25.926Z,99.90
2018-03-08T04:12:53.374Z,99.90
2018-03-08T04:15:20.831Z,99.90
2018-03-08T04:17:48.276Z,99.90
2018-03-08T04:20:15.758Z,99.90
2018-03-08T04:22:44.035Z,99.90
2018-03-08T04:25:12.272Z,99.90
2018-03-08T04:27:41.129Z,99.90
2018-03-08T04:30:09.348Z,99.90
2018-03-08T04:32:36.793Z,99.90
2018-03-08T04:35:05.046Z,99.90
2018-03-08T04:37:32.503Z,99.90
2018-03-08T04:39:59.945Z,99.90
2018-03-08T04:42:27.486Z,99.90
2018-03-08T04:44:56.437Z,99.90
2018-03-08T04:47:23.952Z,99.90
2018-03-08T04:49:51.391Z,99.90
2018-03-08T04:52:18.863Z,99.90
2018-03-08T04:54:46.351Z,99.90
2018-03-08T04:57:13.807Z,99.90
2018-03-08T04:59:41.275Z,99.90
2018-03-08T05:02:08.769Z,99.90
2018-03-08T05:04:36.968Z,99.90
2018-03-08T05:07:04.431Z,99.90
2018-03-08T05:09:31.922Z,99.90
2018-03-08T05:11:59.490Z,99.90
2018-03-08T05:14:26.931Z,99.90
2018-03-08T05:16:54.372Z,99.90
2018-03-08T05:19:21.870Z,99.90
2018-03-08T05:21:49.320Z,99.90
2018-03-08T05:24:16.863Z,99.90
2018-03-08T05:26:44.328Z,99.90
2018-03-08T05:29:11.970Z,99.90
2018-03-08T05:31:39.413Z,99.90
2018-03-08T05:34:07.645Z,99.90
2018-03-08T05:36:35.194Z,99.90
2018-03-08T05:39:02.642Z,99.90
2018-03-08T05:41:30.882Z,99.90
2018-03-08T05:43:58.317Z,99.90
2018-03-08T05:46:25.799Z,99.90
2018-03-08T05:48:53.247Z,99.90
2018-03-08T05:51:20.715Z,99.90
2018-03-08T05:53:48.271Z,99.90
2018-03-08T05:56:15.768Z,99.90
2018-03-08T05:58:43.229Z,99.90
2018-03-08T06:01:11.487Z,99.90
2018-03-08T06:03:39.715Z,99.90
2018-03-08T06:06:07.372Z,99.90
2018-03-08T06:08:34.813Z,99.90
2018-03-08T06:11:02.280Z,99.90
2018-03-08T06:13:29.763Z,99.90
2018-03-08T06:15:57.254Z,99.90
2018-03-08T06:18:25.550Z,99.90
2018-03-08T06:20:53.792Z,99.90
2018-03-08T06:23:21.272Z,99.90
2018-03-08T06:25:52.815Z,99.90
2018-03-08T06:28:21.064Z,99.90
2018-03-08T06:30:48.527Z,99.90
2018-03-08T06:33:15.982Z,99.90
2018-03-08T06:35:43.459Z,99.90
2018-03-08T06:38:11.702Z,99.90
2018-03-08T06:40:39.913Z,99.90
2018-03-08T06:43:08.167Z,99.90
2018-03-08T06:45:35.617Z,99.90
2018-03-08T06:48:03.088Z,99.90
2018-03-08T06:50:31.381Z,99.90
2018-03-08T06:52:58.860Z,99.90
2018-03-08T06:55:26.316Z,99.90
2018-03-08T06:57:53.774Z,99.90
2018-03-08T07:00:21.233Z,99.90
2018-03-08T07:02:48.691Z,99.90
2018-03-08T07:05:16.138Z,99.90
2018-03-08T07:07:43.636Z,99.90
2018-03-08T07:10:11.126Z,99.90
2018-03-08T07:12:39.330Z,99.90
2018-03-08T07:15:06.796Z,99.90
2018-03-08T07:17:34.231Z,99.90
2018-03-08T07:20:01.715Z,99.90
2018-03-08T07:22:29.310Z,99.90
2018-03-08T07:24:56.712Z,99.90
2018-03-08T07:27:24.160Z,99.90
2018-03-08T07:29:51.619Z,99.90
2018-03-08T07:32:19.078Z,99.90
2018-03-08T07:34:46.513Z,99.90
2018-03-08T07:37:13.974Z,99.90
2018-03-08T07:39:41.428Z,99.90
2018-03-08T07:42:08.900Z,99.90
2018-03-08T07:44:36.350Z,99.90
2018-03-08T07:47:03.828Z,99.90
2018-03-08T07:49:31.283Z,99.90
2018-03-08T07:51:58.741Z,99.90
2018-03-08T07:54:26.221Z,99.90
2018-03-08T07:56:53.656Z,99.90
2018-03-08T07:59:21.287Z,99.90
2018-03-08T08:01:48.741Z,99.90
2018-03-08T08:04:28.036Z,99.90
2018-03-08T08:07:07.475Z,99.90
2018-03-08T08:09:35.712Z,99.90
2018-03-08T08:12:03.171Z,99.90
2018-03-08T08:14:30.627Z,99.90
2018-03-08T08:16:58.062Z,99.90
2018-03-08T08:19:25.529Z,99.90
2018-03-08T08:21:53.033Z,99.90
2018-03-08T08:24:20.504Z,99.90
2018-03-08T08:26:47.955Z,99.90
2018-03-08T08:29:15.375Z,99.90
2018-03-08T08:31:42.844Z,99.90
2018-03-08T08:34:10.352Z,99.90
2018-03-08T08:36:37.748Z,99.90
2018-03-08T08:39:05.200Z,99.90
2018-03-08T08:41:32.663Z,99.90
2018-03-08T08:44:00.134Z,99.90
2018-03-08T08:46:27.579Z,99.90
2018-03-08T08:48:55.029Z,99.90
2018-03-08T08:51:22.479Z,99.90
2018-03-08T08:53:49.927Z,99.90
2018-03-08T08:56:17.378Z,99.90
2018-03-08T08:58:44.825Z,99.90
2018-03-08T09:01:12.288Z,99.90
2018-03-08T09:03:39.726Z,99.90
2018-03-08T09:06:07.174Z,99.90
2018-03-08T09:08:34.607Z,99.90
2018-03-08T09:11:02.200Z,99.90
2018-03-08T09:13:29.656Z,99.90
2018-03-08T09:15:57.075Z,99.90
2018-03-08T09:18:25.296Z,99.90
2018-03-08T09:20:53.497Z,99.90
2018-03-08T09:23:20.950Z,99.90
2018-03-08T09:25:48.432Z,99.90
2018-03-08T09:28:15.915Z,99.90
2018-03-08T09:30:43.408Z,99.90
2018-03-08T09:33:10.844Z,99.90
2018-03-08T09:35:38.281Z,99.90
2018-03-08T09:38:05.741Z,99.90
2018-03-08T09:40:33.187Z,99.90
2018-03-08T09:43:00.779Z,99.90
2018-03-08T09:45:28.231Z,99.90
2018-03-08T09:47:55.704Z,99.90
2018-03-08T09:50:23.146Z,99.90
2018-03-08T09:52:50.608Z,99.90
2018-03-08T09:55:18.116Z,99.90
2018-03-08T09:57:45.581Z,99.90
2018-03-08T10:00:13.031Z,99.90
2018-03-08T10:02:40.489Z,99.90
2018-03-08T10:05:08.702Z,99.90
2018-03-08T10:07:36.196Z,99.90
2018-03-08T10:10:04.419Z,99.90
2018-03-08T10:12:31.851Z,99.90
2018-03-08T10:14:59.353Z,99.90
2018-03-08T10:17:26.791Z,99.90
2018-03-08T10:19:54.252Z,99.90
2018-03-08T10:22:21.690Z,99.90
2018-03-08T10:24:49.283Z,99.90
2018-03-08T10:27:16.752Z,99.90
2018-03-08T10:29:44.199Z,99.90
2018-03-08T10:32:11.642Z,99.90
2018-03-08T10:34:39.886Z,99.90
2018-03-08T10:37:07.333Z,99.90
2018-03-08T10:39:34.861Z,99.90
2018-03-08T10:42:03.087Z,99.90
2018-03-08T10:44:30.555Z,99.90
2018-03-08T10:46:58.015Z,99.90
2018-03-08T10:49:25.451Z,99.90
2018-03-08T10:51:52.942Z,99.90
2018-03-08T10:54:22.242Z,99.90
2018-03-08T10:56:49.690Z,99.90
2018-03-08T10:59:17.146Z,99.90
2018-03-08T11:01:44.603Z,99.90
2018-03-08T11:04:15.019Z,99.90
2018-03-08T11:06:42.494Z,99.90
2018-03-08T11:09:09.953Z,99.90
2018-03-08T11:11:37.692Z,99.90
2018-03-08T11:14:05.903Z,99.90
2018-03-08T11:16:41.774Z,99.90
2018-03-08T11:19:09.994Z,99.90
2018-03-08T11:21:37.470Z,99.90
2018-03-08T11:24:04.926Z,99.90
2018-03-08T11:26:32.392Z,99.90
2018-03-08T11:28:59.929Z,99.90
2018-03-08T11:31:27.460Z,99.90
2018-03-08T11:33:55.373Z,99.90
2018-03-08T11:36:22.811Z,99.90
2018-03-08T11:38:50.291Z,99.90
2018-03-08T11:41:17.781Z,99.90
2018-03-08T11:43:45.300Z,99.90
2018-03-08T11:46:13.566Z,99.90
2018-03-08T11:48:41.021Z,99.90
2018-03-08T11:51:09.376Z,99.90
2018-03-08T11:53:36.807Z,99.90
2018-03-08T11:56:04.312Z,99.90
2018-03-08T11:58:31.768Z,99.90
2018-03-08T12:00:59.274Z,99.90
2018-03-08T12:03:26.671Z,99.90
2018-03-08T12:05:54.200Z,99.90
2018-03-08T12:08:21.628Z,99.90
2018-03-08T12:10:49.194Z,99.90
2018-03-08T12:13:16.658Z,99.90
2018-03-08T12:15:44.132Z,99.90
2018-03-08T12:18:11.595Z,99.90
2018-03-08T12:20:39.828Z,99.90
2018-03-08T12:23:07.272Z,99.90
2018-03-08T12:25:35.483Z,99.90
2018-03-08T12:28:03.038Z,99.90
2018-03-08T12:30:30.509Z,99.90
2018-03-08T12:32:58.684Z,99.90
2018-03-08T12:35:26.160Z,99.90
2018-03-08T12:37:53.631Z,99.90
2018-03-08T12:40:21.876Z,99.90
2018-03-08T12:42:49.332Z,99.90
2018-03-08T12:45:16.947Z,99.90
2018-03-08T12:47:44.408Z,99.90
2018-03-08T12:50:11.850Z,99.90
2018-03-08T12:52:39.345Z,99.90
2018-03-08T12:55:06.893Z,99.90
2018-03-08T12:57:34.373Z,99.90
2018-03-08T13:00:01.816Z,99.90
2018-03-08T13:02:29.283Z,99.90
2018-03-08T13:04:56.759Z,99.90
2018-03-08T13:07:24.234Z,99.90
2018-03-08T13:09:52.446Z,99.90
2018-03-08T13:12:19.919Z,99.90
2018-03-08T13:14:47.364Z,99.90
2018-03-08T13:19:48.774Z,99.90
2018-03-08T13:22:16.243Z,99.90
2018-03-08T13:24:45.191Z,99.90
2018-03-08T13:27:12.679Z,99.90
2018-03-08T13:29:40.111Z,99.90
2018-03-08T13:32:07.629Z,99.90
2018-03-08T13:34:35.160Z,99.90
2018-03-08T13:37:02.608Z,99.90
2018-03-08T13:39:30.121Z,99.90
2018-03-08T13:41:57.547Z,99.90
2018-03-08T13:44:25.732Z,99.90
2018-03-08T13:46:53.292Z,99.90
2018-03-08T13:49:32.668Z,99.90
2018-03-08T13:52:00.143Z,99.90
2018-03-08T13:54:28.360Z,99.90
2018-03-08T13:56:56.547Z,99.90
2018-03-08T13:59:24.055Z,99.90
2018-03-08T14:01:51.584Z,99.70
2018-03-08T14:04:19.039Z,98.80
2018-03-08T14:06:46.517Z,99.10
2018-03-08T14:09:14.047Z,99.50
2018-03-08T14:11:41.584Z,99.40
2018-03-08T14:14:09.068Z,99.60
2018-03-08T14:16:36.515Z,99.80
2018-03-08T14:19:03.969Z,99.70
2018-03-08T14:21:31.440Z,99.90
2018-03-08T14:23:58.959Z,99.90
2018-03-08T14:26:26.414Z,99.90
2018-03-08T14:28:53.874Z,99.80
2018-03-08T14:31:21.374Z,99.50
2018-03-08T14:33:48.880Z,99.40
2018-03-08T14:36:17.215Z,99.20
2018-03-08T14:38:44.692Z,99.30
2018-03-08T14:41:12.927Z,99.30
2018-03-08T14:43:40.386Z,99.30
2018-03-08T14:46:07.840Z,99.30
2018-03-08T14:48:35.338Z,99.50
2018-03-08T14:51:03.549Z,99.50
2018-03-08T14:53:31.091Z,99.50
2018-03-08T14:55:58.557Z,99.40
2018-03-08T14:58:26.032Z,99.50
2018-03-08T15:00:53.512Z,99.10
2018-03-08T15:03:21.103Z,99.10
2018-03-08T15:05:48.551Z,98.90
2018-03-08T15:08:16.793Z,98.80
2018-03-08T15:10:44.251Z,98.70
2018-03-08T15:13:11.721Z,98.60
2018-03-08T15:15:39.163Z,98.90
2018-03-08T15:18:06.637Z,99.50
2018-03-08T15:20:34.111Z,99.80
2018-03-08T15:23:01.604Z,99.90
2018-03-08T15:25:29.089Z,99.90
2018-03-08T15:27:56.533Z,99.90
2018-03-08T15:30:24.056Z,99.90
2018-03-08T15:32:51.535Z,99.90
2018-03-08T15:35:19.017Z,99.90
2018-03-08T15:37:46.472Z,99.90
2018-03-08T15:40:13.946Z,99.90
2018-03-08T15:42:41.393Z,99.90
2018-03-08T15:45:08.873Z,99.90
2018-03-08T15:47:36.333Z,99.90
2018-03-08T15:50:04.571Z,99.90
2018-03-08T15:52:32.023Z,99.90
2018-03-08T15:54:59.588Z,99.90
2018-03-08T15:57:27.039Z,99.90
2018-03-08T15:59:54.499Z,99.90
2018-03-08T16:02:25.932Z,99.90
2018-03-08T16:04:53.408Z,99.90
2018-03-08T16:07:32.664Z,99.90
2018-03-08T16:13:04.492Z,99.90
2018-03-08T16:15:31.949Z,99.90
2018-03-08T16:17:59.422Z,99.90
2018-03-08T16:20:26.974Z,99.90
2018-03-08T16:22:54.426Z,99.90
2018-03-08T16:25:21.894Z,99.90
2018-03-08T16:27:49.368Z,99.90
2018-03-08T16:30:17.591Z,99.90
2018-03-08T16:32:45.064Z,99.90
2018-03-08T16:35:12.545Z,99.90
2018-03-08T16:37:40.028Z,99.90
2018-03-08T16:40:07.480Z,99.90
2018-03-08T16:42:35.456Z,99.90
2018-03-08T16:45:02.910Z,99.90
2018-03-08T16:47:31.140Z,99.90
2018-03-08T16:49:58.613Z,99.90
2018-03-08T16:52:26.066Z,99.90
2018-03-08T16:54:53.652Z,99.90
2018-03-08T16:57:21.146Z,99.90
2018-03-08T16:59:48.599Z,99.90
2018-03-08T17:02:16.059Z,99.90
2018-03-08T17:04:43.536Z,99.90
2018-03-08T17:07:11.040Z,99.90
2018-03-08T17:09:38.520Z,99.90
2018-03-08T17:12:05.981Z,99.90
2018-03-08T17:14:33.467Z,99.80
2018-03-08T17:17:01.150Z,99.70
2018-03-08T17:19:28.608Z,99.70
2018-03-08T17:21:56.883Z,99.80
2018-03-08T17:24:24.291Z,99.80
2018-03-08T17:26:51.802Z,99.70
2018-03-08T17:29:20.009Z,99.70
2018-03-08T17:31:47.589Z,99.70
2018-03-08T17:34:15.050Z,99.60
2018-03-08T17:36:42.538Z,99.80
2018-03-08T17:39:10.060Z,99.70
2018-03-08T17:41:37.671Z,99.30
2018-03-08T17:44:05.166Z,99.30
2018-03-08T17:46:32.640Z,99.30
2018-03-08T17:49:00.101Z,99.00
2018-03-08T17:51:27.630Z,98.80
2018-03-08T17:53:55.107Z,98.60
2018-03-08T17:56:22.577Z,98.40
2018-03-08T17:58:50.059Z,98.60
2018-03-08T18:01:17.521Z,98.20
2018-03-08T18:03:45.033Z,98.60
2018-03-08T18:06:12.508Z,98.70
2018-03-08T18:08:39.955Z,99.00
2018-03-08T18:11:07.418Z,99.90
2018-03-08T18:13:34.879Z,99.90
2018-03-08T18:16:03.098Z,99.90
2018-03-08T18:18:30.580Z,99.90
2018-03-08T18:21:02.154Z,99.90
2018-03-08T18:23:29.611Z,99.90
2018-03-08T18:25:57.082Z,99.90
2018-03-08T18:28:25.320Z,99.90
2018-03-08T18:30:52.784Z,99.90
2018-03-08T18:33:20.228Z,99.90
2018-03-08T18:35:48.436Z,99.90
2018-03-08T18:38:15.873Z,99.90
2018-03-08T18:40:43.327Z,99.90
2018-03-08T18:43:10.781Z,99.90
2018-03-08T18:45:38.269Z,99.90
2018-03-08T18:48:05.724Z,99.90
2018-03-08T18:50:33.179Z,99.90
2018-03-08T18:53:01.455Z,99.90
2018-03-08T18:55:28.894Z,99.90
2018-03-08T18:57:56.364Z,99.90
2018-03-08T19:00:23.804Z,99.90
2018-03-08T19:02:51.308Z,99.90
2018-03-08T19:05:18.781Z,99.90
2018-03-08T19:07:46.992Z,99.90
2018-03-08T19:10:14.432Z,99.90
2018-03-08T19:12:41.908Z,99.90
2018-03-08T19:15:09.398Z,99.90
2018-03-08T19:17:36.861Z,99.90
2018-03-08T19:20:04.305Z,99.90
2018-03-08T19:22:32.609Z,99.90
2018-03-08T19:25:00.068Z,99.90
2018-03-08T19:27:27.537Z,99.90
2018-03-08T19:29:55.185Z,99.90
2018-03-08T19:32:22.644Z,99.90
2018-03-08T19:34:50.167Z,99.90
2018-03-08T19:37:17.595Z,99.90
2018-03-08T19:39:45.225Z,99.90
2018-03-08T19:42:12.658Z,99.90
2018-03-08T19:44:40.173Z,99.90
2018-03-08T19:47:07.577Z,99.90
2018-03-08T19:49:35.033Z,99.90
2018-03-08T19:52:03.296Z,99.90
2018-03-08T19:54:30.870Z,99.90
2018-03-08T19:56:58.329Z,99.90
2018-03-08T19:59:25.864Z,99.90
2018-03-08T20:01:53.265Z,99.90
2018-03-08T20:04:20.743Z,99.90
2018-03-08T20:06:48.173Z,99.90
2018-03-08T20:09:15.605Z,99.90
2018-03-08T20:11:43.075Z,99.90
2018-03-08T20:14:10.548Z,99.90
2018-03-08T20:16:38.025Z,99.90
2018-03-08T20:19:06.296Z,99.90
2018-03-08T20:21:33.794Z,99.90
2018-03-08T20:24:01.276Z,99.90
2018-03-08T20:26:28.750Z,99.90
2018-03-08T20:28:56.319Z,99.90
2018-03-08T20:31:23.814Z,99.90
2018-03-08T20:33:51.259Z,99.90
2018-03-08T20:36:19.520Z,99.90
2018-03-08T20:38:47.749Z,99.90
2018-03-08T20:41:15.201Z,99.90
2018-03-08T20:43:42.672Z,99.90
2018-03-08T20:46:10.166Z,99.90
2018-03-08T20:48:37.614Z,99.90
2018-03-08T20:51:05.071Z,99.90
2018-03-08T20:53:32.535Z,99.90
2018-03-08T20:56:00.771Z,99.90
2018-03-08T20:58:28.308Z,99.90
2018-03-08T21:00:55.972Z,99.90
2018-03-08T21:03:23.418Z,99.90
2018-03-08T21:05:50.883Z,99.90
2018-03-08T21:08:18.337Z,99.90
2018-03-08T21:10:45.905Z,99.90
2018-03-08T21:13:13.361Z,99.90
2018-03-08T21:15:40.808Z,99.90
2018-03-08T21:18:08.272Z,99.90
2018-03-08T21:20:35.727Z,99.90
2018-03-08T21:23:03.253Z,99.90
2018-03-08T21:25:30.704Z,99.90
2018-03-08T21:27:58.986Z,99.90
2018-03-08T21:30:26.512Z,99.90
2018-03-08T21:32:54.014Z,99.90
2018-03-08T21:35:21.537Z,99.90
2018-03-08T21:37:49.038Z,99.90
2018-03-08T21:40:16.484Z,99.90
2018-03-08T21:42:44.014Z,99.90
2018-03-08T21:45:12.978Z,99.90
2018-03-08T21:47:40.455Z,99.90
2018-03-08T21:50:08.742Z,99.90
2018-03-08T21:52:37.041Z,99.90
2018-03-08T21:55:04.503Z,99.90
2018-03-08T21:57:32.065Z,99.90
2018-03-08T21:59:59.518Z,99.90
2018-03-08T22:02:27.080Z,99.90
2018-03-08T22:04:54.564Z,99.90
2018-03-08T22:07:22.004Z,99.90
2018-03-08T22:09:49.480Z,99.90
2018-03-08T22:12:18.620Z,99.90
2018-03-08T22:14:46.056Z,99.90
2018-03-08T22:17:14.458Z,99.90
2018-03-08T22:19:41.911Z,99.90
2018-03-08T22:22:09.425Z,99.90
2018-03-08T22:24:36.883Z,99.90
2018-03-08T22:27:04.346Z,99.90
2018-03-08T22:29:31.797Z,99.90
2018-03-08T22:31:59.279Z,99.90
2018-03-08T22:34:27.486Z,99.90
2018-03-08T22:36:55.004Z,99.90
2018-03-08T22:39:23.236Z,99.90
2018-03-08T22:41:50.701Z,99.90
2018-03-08T22:44:18.162Z,99.90
2018-03-08T22:46:46.406Z,99.90
2018-03-08T22:49:13.852Z,99.90
2018-03-08T22:51:41.309Z,99.90
2018-03-08T22:54:08.752Z,99.90
2018-03-08T22:56:36.211Z,99.90
2018-03-08T22:59:03.668Z,99.90
2018-03-08T23:04:57.504Z,99.90
2018-03-08T23:07:24.970Z,99.90
2018-03-08T23:09:52.445Z,99.90
2018-03-08T23:12:19.864Z,99.90
2018-03-08T23:14:47.413Z,99.90
2018-03-08T23:17:14.872Z,99.90
2018-03-08T23:19:42.331Z,99.90
2018-03-08T23:22:09.784Z,99.90
2018-03-08T23:24:37.264Z,99.90
2018-03-08T23:27:05.046Z,99.90
2018-03-08T23:29:32.562Z,99.90
2018-03-08T23:32:00.026Z,99.90
2018-03-08T23:34:27.525Z,99.90
2018-03-08T23:36:56.342Z,99.90
2018-03-08T23:39:23.782Z,99.90
2018-03-08T23:41:51.289Z,99.90
2018-03-08T23:44:18.741Z,99.90
2018-03-08T23:46:46.201Z,99.90
2018-03-08T23:49:14.444Z,99.90
2018-03-08T23:51:41.894Z,99.90
2018-03-08T23:54:09.365Z,99.90
2018-03-08T23:56:36.813Z,99.90
2018-03-08T23:59:04.960Z,99.90
